Bangkok Bridge — 3FTZ8 — position and weather

sailwx.info

Track history (hours):
 
Tides and Currents Weather Stations Pressure Air Temp Water Temp Dewpoint Dewpoint Depression Visibility Wind Speed Wind Dir Waves Ship Positions

Bangkok Bridge

Last reported at 2017-Aug-17 14:59 UTC. Time now 2017-Aug-17 15:20 UTC.
Position N 33°45' W 118°12'.

Length 267 m; draft 11.1 m.

Type: Ship (hazmat cat A). MMSI: 353368000.

Date/timePositionNaut miles runAvg speedWind from/ knotsBaromVisibWave heightAir tempDewpointWater temp
2017-Aug-17 14:59N 33°45' W 118°12'0 0.0
2017-Aug-17 14:29N 33°45' W 118°12'0 0.0
2017-Aug-17 13:59N 33°45' W 118°12'0 0.0
2017-Aug-17 13:29N 33°45' W 118°12'0 0.0
2017-Aug-17 12:59N 33°45' W 118°12'0 0.1
2017-Aug-17 12:29N 33°45' W 118°12'0 0.1
2017-Aug-17 11:59N 33°45' W 118°12'0 0.0
2017-Aug-17 11:26N 33°45' W 118°12'0 0.0
2017-Aug-17 10:56N 33°45' W 118°12'0 0.0
2017-Aug-17 10:29N 33°45' W 118°12'0 0.0
2017-Aug-17 09:59N 33°45' W 118°12'0 0.0
2017-Aug-17 09:26N 33°45' W 118°12'0 0.0
2017-Aug-17 08:53N 33°45' W 118°12'0 0.0
2017-Aug-17 08:29N 33°45' W 118°12'0 0.0
2017-Aug-17 07:56N 33°45' W 118°12'0 0.0
2017-Aug-17 07:29N 33°45' W 118°12'0 0.1
2017-Aug-17 06:53N 33°45' W 118°12'0 0.1
2017-Aug-17 05:59N 33°45' W 118°12'0 0.0
2017-Aug-17 05:29N 33°45' W 118°12'0 0.0
2017-Aug-17 04:47N 33°45' W 118°12'0 0.2
2017-Aug-17 04:29N 33°45' W 118°12'0 0.1
2017-Aug-17 03:59N 33°45' W 118°12'0 0.0
2017-Aug-17 03:29N 33°45' W 118°12'0 0.0
2017-Aug-17 02:59N 33°45' W 118°12'0 0.0
2017-Aug-17 02:29N 33°45' W 118°12'0 0.0
2017-Aug-17 01:56N 33°45' W 118°12'0 0.0
2017-Aug-17 01:29N 33°45' W 118°12'0 0.0
2017-Aug-17 00:56N 33°45' W 118°12'0 0.0
2017-Aug-17 00:26N 33°45' W 118°12'0 0.1
2017-Aug-16 23:56N 33°45' W 118°12'0 0.0
2017-Aug-16 23:23N 33°45' W 118°12'0 0.0
2017-Aug-16 22:59N 33°45' W 118°12'0 0.1
2017-Aug-16 22:29N 33°45' W 118°12'0 0.0
2017-Aug-16 21:53N 33°45' W 118°12'0 1.3
2017-Aug-16 21:31N 33°44' W 118°12'4 7.8
2017-Aug-16 21:00N 33°41' W 118°11'3 5.7
2017-Aug-16 20:30N 33°38' W 118°11'5 9.2
2017-Aug-16 20:00N 33°36' W 118°16'5 9.8
2017-Aug-16 19:30N 33°37' W 118°22'510.6
2017-Aug-16 19:00N 33°39' W 118°28'611.1
2017-Aug-16 18:30N 33°42' W 118°34'611.5
2017-Aug-16 18:01N 33°45' W 118°39'611.6
2017-Aug-16 17:30N 33°48' W 118°46'611.3
2017-Aug-16 17:00N 33°51' W 118°51'611.2
2017-Aug-16 16:31N 33°53' W 118°57'611.6
2017-Aug-16 16:00N 33°56' W 119°03'611.1
2017-Aug-16 15:31N 33°59' W 119°09'5 9.9
2017-Aug-16 15:01N 34°01' W 119°14'611.4
2017-Aug-16 14:30N 34°03' W 119°21'612.1
2017-Aug-16 14:00N 34°05' W 119°28'612.3
2017-Aug-16 13:29N 34°07' W 119°35'610.8
2017-Aug-16 12:58N 34°08' W 119°42'510.9
2017-Aug-16 12:29N 34°10' W 119°48'510.6
2017-Aug-16 12:01N 34°11' W 119°54'510.7
2017-Aug-16 11:30N 34°12' W 120°00'510.7
2017-Aug-16 11:00N 34°14' W 120°07'510.4
2017-Aug-16 10:30N 34°15' W 120°13'510.1
2017-Aug-16 10:00N 34°16' W 120°19'510.1
2017-Aug-16 09:30N 34°18' W 120°24'5 9.7
2017-Aug-16 09:00N 34°19' W 120°30'5 9.7
2017-Aug-16 08:30N 34°21' W 120°36'5 9.8
2017-Aug-16 08:01N 34°22' W 120°41'510.0
2017-Aug-16 07:29N 34°23' W 120°48'510.2
2017-Aug-16 07:00N 34°25' W 120°53'611.3
2017-Aug-16 06:30N 34°26' W 120°60'611.4
2017-Aug-16 06:00N 34°28' W 121°06'611.4
2017-Aug-16 05:30N 34°30' W 121°13'611.3
2017-Aug-16 05:00N 34°32' W 121°19'611.2
2017-Aug-16 04:30N 34°34' W 121°26'611.1
2017-Aug-16 04:00N 34°36' W 121°32'511.0
2017-Aug-16 03:31N 34°37' W 121°38'611.5
2017-Aug-16 03:00N 34°39' W 121°45'611.7
2017-Aug-16 02:29N 34°41' W 121°52'611.7
2017-Aug-16 02:00N 34°43' W 121°58'711.7
2017-Aug-16 01:26N 34°45' W 122°06'5 9.7
2017-Aug-16 00:58N 34°47' W 122°11'511.4
2017-Aug-16 00:30N 34°49' W 122°17'911.4
2017-Aug-15 23:43N 34°52' W 122°28'211.2
2017-Aug-15 23:30N 34°52' W 122°30'510.8
2017-Aug-15 23:00N 34°54' W 122°37'510.8
2017-Aug-15 22:30N 34°56' W 122°43'611.3
2017-Aug-15 22:00N 34°58' W 122°49'611.6
2017-Aug-15 21:30N 34°60' W 122°56'611.3
2017-Aug-15 21:00N 35°02' W 123°03'611.1
2017-Aug-15 20:31N 35°03' W 123°09'611.1
2017-Aug-15 20:00N 35°05' W 123°15'711.3
2017-Aug-15 19:25N 35°07' W 123°23'  
2017-Aug-10 19:00N 45°18' W 166°30'47719.9 270 / 151007.0 0.5 15.0 21.0
2017-Aug-09 19:00N 45°24' W 177°48'   180 / 121004.0 0.5 17.0 21.0
Track history (hours):
 
Tides and Currents Weather Stations Pressure Air Temp Water Temp Dewpoint Dewpoint Depression Visibility Wind Speed Wind Dir Waves Ship Positions

Bangkok Bridge

Last reported at 2017-Aug-17 14:59 UTC. Time now 2017-Aug-17 15:20 UTC.
Position N 33°45' W 118°12'.

Length 267 m; draft 11.1 m.

Type: Ship (hazmat cat A). MMSI: 353368000.

Date/timePositionNaut miles runAvg speedWind from/ knotsBaromVisibWave heightAir tempDewpointWater temp
2017-Aug-17 14:59N 33°45' W 118°12'0 0.0
2017-Aug-17 14:29N 33°45' W 118°12'0 0.0
2017-Aug-17 13:59N 33°45' W 118°12'0 0.0
2017-Aug-17 13:29N 33°45' W 118°12'0 0.0
2017-Aug-17 12:59N 33°45' W 118°12'0 0.1
2017-Aug-17 12:29N 33°45' W 118°12'0 0.1
2017-Aug-17 11:59N 33°45' W 118°12'0 0.0
2017-Aug-17 11:26N 33°45' W 118°12'0 0.0
2017-Aug-17 10:56N 33°45' W 118°12'0 0.0
2017-Aug-17 10:29N 33°45' W 118°12'0 0.0
2017-Aug-17 09:59N 33°45' W 118°12'0 0.0
2017-Aug-17 09:26N 33°45' W 118°12'0 0.0
2017-Aug-17 08:53N 33°45' W 118°12'0 0.0
2017-Aug-17 08:29N 33°45' W 118°12'0 0.0
2017-Aug-17 07:56N 33°45' W 118°12'0 0.0
2017-Aug-17 07:29N 33°45' W 118°12'0 0.1
2017-Aug-17 06:53N 33°45' W 118°12'0 0.1
2017-Aug-17 05:59N 33°45' W 118°12'0 0.0
2017-Aug-17 05:29N 33°45' W 118°12'0 0.0
2017-Aug-17 04:47N 33°45' W 118°12'0 0.2
2017-Aug-17 04:29N 33°45' W 118°12'0 0.1
2017-Aug-17 03:59N 33°45' W 118°12'0 0.0
2017-Aug-17 03:29N 33°45' W 118°12'0 0.0
2017-Aug-17 02:59N 33°45' W 118°12'0 0.0
2017-Aug-17 02:29N 33°45' W 118°12'0 0.0
2017-Aug-17 01:56N 33°45' W 118°12'0 0.0
2017-Aug-17 01:29N 33°45' W 118°12'0 0.0
2017-Aug-17 00:56N 33°45' W 118°12'0 0.0
2017-Aug-17 00:26N 33°45' W 118°12'0 0.1
2017-Aug-16 23:56N 33°45' W 118°12'0 0.0
2017-Aug-16 23:23N 33°45' W 118°12'0 0.0
2017-Aug-16 22:59N 33°45' W 118°12'0 0.1
2017-Aug-16 22:29N 33°45' W 118°12'0 0.0
2017-Aug-16 21:53N 33°45' W 118°12'0 1.3
2017-Aug-16 21:31N 33°44' W 118°12'4 7.8
2017-Aug-16 21:00N 33°41' W 118°11'3 5.7
2017-Aug-16 20:30N 33°38' W 118°11'5 9.2
2017-Aug-16 20:00N 33°36' W 118°16'5 9.8
2017-Aug-16 19:30N 33°37' W 118°22'510.6
2017-Aug-16 19:00N 33°39' W 118°28'611.1
2017-Aug-16 18:30N 33°42' W 118°34'611.5
2017-Aug-16 18:01N 33°45' W 118°39'611.6
2017-Aug-16 17:30N 33°48' W 118°46'611.3
2017-Aug-16 17:00N 33°51' W 118°51'611.2
2017-Aug-16 16:31N 33°53' W 118°57'611.6
2017-Aug-16 16:00N 33°56' W 119°03'611.1
2017-Aug-16 15:31N 33°59' W 119°09'5 9.9
2017-Aug-16 15:01N 34°01' W 119°14'611.4
2017-Aug-16 14:30N 34°03' W 119°21'612.1
2017-Aug-16 14:00N 34°05' W 119°28'612.3
2017-Aug-16 13:29N 34°07' W 119°35'610.8
2017-Aug-16 12:58N 34°08' W 119°42'510.9
2017-Aug-16 12:29N 34°10' W 119°48'510.6
2017-Aug-16 12:01N 34°11' W 119°54'510.7
2017-Aug-16 11:30N 34°12' W 120°00'510.7
2017-Aug-16 11:00N 34°14' W 120°07'510.4
2017-Aug-16 10:30N 34°15' W 120°13'510.1
2017-Aug-16 10:00N 34°16' W 120°19'510.1
2017-Aug-16 09:30N 34°18' W 120°24'5 9.7
2017-Aug-16 09:00N 34°19' W 120°30'5 9.7
2017-Aug-16 08:30N 34°21' W 120°36'5 9.8
2017-Aug-16 08:01N 34°22' W 120°41'510.0
2017-Aug-16 07:29N 34°23' W 120°48'510.2
2017-Aug-16 07:00N 34°25' W 120°53'611.3
2017-Aug-16 06:30N 34°26' W 120°60'611.4
2017-Aug-16 06:00N 34°28' W 121°06'611.4
2017-Aug-16 05:30N 34°30' W 121°13'611.3
2017-Aug-16 05:00N 34°32' W 121°19'611.2
2017-Aug-16 04:30N 34°34' W 121°26'611.1
2017-Aug-16 04:00N 34°36' W 121°32'511.0
2017-Aug-16 03:31N 34°37' W 121°38'611.5
2017-Aug-16 03:00N 34°39' W 121°45'611.7
2017-Aug-16 02:29N 34°41' W 121°52'611.7
2017-Aug-16 02:00N 34°43' W 121°58'711.7
2017-Aug-16 01:26N 34°45' W 122°06'5 9.7
2017-Aug-16 00:58N 34°47' W 122°11'511.4
2017-Aug-16 00:30N 34°49' W 122°17'911.4
2017-Aug-15 23:43N 34°52' W 122°28'211.2
2017-Aug-15 23:30N 34°52' W 122°30'510.8
2017-Aug-15 23:00N 34°54' W 122°37'510.8
2017-Aug-15 22:30N 34°56' W 122°43'611.3
2017-Aug-15 22:00N 34°58' W 122°49'611.6
2017-Aug-15 21:30N 34°60' W 122°56'611.3
2017-Aug-15 21:00N 35°02' W 123°03'611.1
2017-Aug-15 20:31N 35°03' W 123°09'611.1
2017-Aug-15 20:00N 35°05' W 123°15'711.3
2017-Aug-15 19:25N 35°07' W 123°23'  
2017-Aug-10 19:00N 45°18' W 166°30'47719.9 270 / 151007.0 0.5 15.0 21.0
2017-Aug-09 19:00N 45°24' W 177°48'   180 / 121004.0 0.5 17.0 21.0

Dump ship's entire track history